Hobart, Tasmania

11:37 PM AEDT on October 23, 2014 (GMT +1100)
ITASLAUD2 | Change Station
CLOSE
Current Station
Personal Weather Station
Location: Lauderdale, TAS
Elevation: 0 ft
Nearby Weather Stations

Elev 0 ft 42.91 °S, 147.49 °E | Updated 22 seconds ago

Clear
Clear
49.5 °F
Feels Like 50 °F
N
2.2
Wind Variable Wind from ENE
Gusts 2.2 mph

Today
High -- | Low -- °F
--% Chance of Precip.
Yesterday
High -- | Low -- °F
Precip. -- in
6:07 AM 7:42 PM
Waning Crescent, 0% visible
Pressure 30.27 in
Visibility -9999.0 miles
Clouds
Windchill 50 °F
Dew Point 39 °F
Humidity 68%
Rainfall 0.00 in
Snow Depth Not available.
UV Not available.
Pollen Not available.
Air Quality Not available.
Flu Activity Not available.
METAR YMHB 231200Z 01007KT CAVOK 10/04 Q1025

More Conditions Fewer Conditions

Pressure 30.27 in
Visibility -9999.0 miles
Clouds
Windchill 50 °F
Dew Point 39 °F
Humidity 68%
Rainfall 0.00 in
Snow Depth Not available.
UV Not available.
Pollen Not available.
Air Quality Not available.
Flu Activity Not available.
METAR YMHB 231200Z 01007KT CAVOK 10/04 Q1025

More Conditions Fewer Conditions

10-Day Weather Forecast

Almanac

Astronomy

Oct. 23, 2014 Rise Set
Actual Time 6:07 AM AEDT 7:42 PM AEDT
Civil Twilight 5:37 AM AEDT 8:12 PM AEDT
Nautical Twilight 5:01 AM AEDT 8:48 PM AEDT
Astronomical Twilight 4:23 AM AEDT 9:26 PM AEDT
Moon 5:40 AM AEDT 7:01 PM AEDT
Length of Visible Light 14h 34m
Length of Day
13h 34m
Tomorrow will be 2m 46s longer.
Waning Crescent, 0% of the Moon is Illuminated
Today
Waning Crescent
Oct 23
New
Oct 30
First Quarter
Nov 6
Full
Nov 14
Last Quarter

Yesterday's Extremes

Country Highs Country Lows

Community

WunderPhotos

Upload Photos

1,764,214 photos uploaded!

Nearby

Snow Depth

Not available.

Earthquake Activity

City Distance Mag. Time & Date
No recent earthquake activity has been reported nearby.
Minimum magnitude displayed is 2.5.

Coastal Water Temperatures

Place Temperature
No Stations Reporting

Nearby Weather Stations